Pagrindinis puslapis
METAR-TAF:

METAR-TAF

Oro uostai :

Karup, Danija

platuma: 56-18N, ilguma: 009-07E, Aukštis: 52 m

Dabartinis oras

Ataskaita buvo paskelbta 56 minutes, ne 22:50 UTC
Vėjas 5 kt iš Pietų/Pietryčių
Temperatūra 13°C
Drėgmė 82%
Slėgis 1019 hPa
Matomumas 10 km arba daugiau

METAR: EKKA 022250Z AUTO 15005KT 9999 FEW069/// FEW210/// 13/10 Q1019

Laikas: 01:46 (23:46 UTC)

Prognozė

Ataskaita buvo paskelbta 3 valandos ir 30 minutes, ne 20:16 UTC
Prognozė galioja nuo 02 metu 21 UTC su 03 metu 21 UTC
Vėjas 8 kt iš Pietų
Matomumas 10 km arba daugiau
Išsisklaidę debesys ne aukštis 3000 ft
Laikinai
nuo 03 metu 01 UTC su 03 metu 12 UTC
Matomumas: 6000 m
Išsisklaidę debesys ne aukštis 4000 ft, Liūtiniai kamuoliniai debesys.
lietus
Tapsmas
nuo 03 metu 09 UTC su 03 metu 12 UTC
Vėjas 6 kt iš Vakarų

TAF: EKKA 022016Z 0221/0321 17008KT 9999 SCT030 TEMPO 0301/0312 6000 SHRA SCT040CB BECMG 0309/0312 27006KT

Orai ataskaitas ir orų prognozės (METAR, TAF).

turimą stotys yra geltonos ir raudonos taškus žemėlapyje.

Perkelti pele per norėdami pamatyti stoties vardą.

Tada spustelėkite, norėdami matyti oro stebėjimo ir prognozės.

Norėdami pakeisti žemėlapį: spustelėkite ant žalios mygtukų su juodo kryžiaus žemyn,; žalią mygtuką su brūkšneliu, jei norite nutolinti; arba žalių rodyklių gretimoms žemėlapius.


METAR-TAF: